Wetterdaten: aktuell Sonntag, 29.11.2020 18:15
Datum Zeit Temp. A. Luft Gew. Boden Gew. Boden A. Feuchte A. Luftdruck Regen Wind Richtung Richtung Sonnenschein ET UV Solar Taupunkt Windchill Windben Empfang
29.11.2020 18:15 0.2 C -0.6 C 0.0 C 0.0 C 87 % 1027.2 hPa 0.0 l/m 0.0 km/h (0 Bft) NO 54 0 min 0.000 mm 0.0 UV-I 0 W/m -1.7 C 0.2 C 0.0 km/h (0 Bft) 100.00 %
29.11.2020 17:15 0.0 C 0.6 C 0.0 C 0.0 C 84 % 1026.7 hPa 0.0 l/m 0.0 km/h (0 Bft) O 98 0 min 0.000 mm 0.0 UV-I 0 W/m -2.4 C 0.0 C 0.0 km/h (0 Bft) 98.29 %
29.11.2020 16:15 0.9 C 5.0 C 0.0 C 0.0 C 80 % 1026.2 hPa 0.0 l/m 4.5 km/h (1 Bft) O-NO 78 0 min 0.025 mm 0.0 UV-I 10 W/m -2.2 C 0.9 C 9.7 km/h (2 Bft) 97.44 %
29.11.2020 15:15 1.3 C 2.8 C 0.0 C 0.0 C 80 % 1026.0 hPa 0.0 l/m 7.1 km/h (2 Bft) O-NO 67 5 min 0.051 mm 0.0 UV-I 84 W/m -1.8 C 0.6 C 12.9 km/h (3 Bft) 99.15 %
29.11.2020 14:15 1.9 C 3.3 C 0.0 C 0.0 C 78 % 1026.2 hPa 0.0 l/m 6.4 km/h (2 Bft) O-NO 70 40 min 0.076 mm 0.4 UV-I 105 W/m -1.5 C 1.9 C 12.9 km/h (3 Bft) 97.44 %
29.11.2020 13:15 1.9 C 6.1 C 0.0 C 0.0 C 76 % 1026.2 hPa 0.0 l/m 7.3 km/h (2 Bft) O-NO 62 60 min 0.102 mm 0.8 UV-I 241 W/m -1.9 C 1.0 C 14.5 km/h (3 Bft) 100.00 %
29.11.2020 12:15 1.8 C 7.2 C 0.0 C 0.0 C 79 % 1026.4 hPa 0.0 l/m 10.3 km/h (2 Bft) O 89 20 min 0.051 mm 0.8 UV-I 268 W/m -1.4 C -1.7 C 17.7 km/h (3 Bft) 100.00 %
29.11.2020 11:15 0.7 C 6.1 C 0.0 C 0.0 C 82 % 1026.8 hPa 0.0 l/m 8.3 km/h (2 Bft) N-NO 33 0 min 0.025 mm 0.7 UV-I 83 W/m -2.0 C -1.2 C 19.3 km/h (3 Bft) 95.73 %
29.11.2020 10:15 0.2 C 1.1 C 0.0 C 0.0 C 86 % 1026.7 hPa 0.0 l/m 8.5 km/h (2 Bft) O-NO 65 0 min 0.001 mm 0.5 UV-I 70 W/m -1.9 C -1.9 C 17.7 km/h (3 Bft) 98.37 %
29.11.2020 09:15 -0.2 C 0.0 C 0.0 C 0.0 C 89 % 1026.2 hPa 0.0 l/m 6.5 km/h (2 Bft) O 81 0 min 0.025 mm 0.0 UV-I 56 W/m -1.8 C -0.3 C 12.9 km/h (3 Bft) 100.00 %
29.11.2020 08:15 -0.3 C -0.6 C 0.0 C 0.0 C 89 % 1025.7 hPa 0.0 l/m 6.7 km/h (2 Bft) O-NO 76 0 min 0.000 mm 0.0 UV-I 11 W/m -1.9 C -0.6 C 16.1 km/h (3 Bft) 100.00 %
29.11.2020 07:15 -0.1 C -0.6 C 0.0 C 0.0 C 88 % 1025.3 hPa 0.0 l/m 8.8 km/h (2 Bft) O-NO 66 0 min 0.000 mm 0.0 UV-I 0 W/m -1.8 C -2.5 C 17.7 km/h (3 Bft) 100.00 %
29.11.2020 06:15 0.1 C -0.6 C 0.0 C 0.0 C 88 % 1024.8 hPa 0.0 l/m 9.6 km/h (2 Bft) O 86 0 min 0.000 mm 0.0 UV-I 0 W/m -1.6 C -3.0 C 20.9 km/h (4 Bft) 100.00 %
29.11.2020 05:15 0.1 C -0.6 C 0.0 C 0.0 C 91 % 1024.6 hPa 0.0 l/m 6.7 km/h (2 Bft) O-NO 61 0 min 0.000 mm 0.0 UV-I 0 W/m -1.2 C -0.2 C 12.9 km/h (3 Bft) 98.29 %
29.11.2020 04:15 0.2 C 0.0 C 0.0 C 0.0 C 94 % 1024.7 hPa 0.0 l/m 7.0 km/h (2 Bft) NO 38 0 min 0.000 mm 0.0 UV-I 0 W/m -0.6 C -0.4 C 19.3 km/h (3 Bft) 94.02 %
29.11.2020 03:15 0.2 C 0.0 C 0.0 C 0.0 C 97 % 1024.7 hPa 0.0 l/m 12.3 km/h (3 Bft) O 82 0 min 0.000 mm 0.0 UV-I 0 W/m -0.2 C -5.0 C 24.1 km/h (4 Bft) 97.44 %
29.11.2020 02:15 0.3 C 0.0 C 0.0 C 0.0 C 97 % 1024.5 hPa 0.0 l/m 9.2 km/h (2 Bft) NO 44 0 min 0.000 mm 0.0 UV-I 0 W/m -0.1 C -2.4 C 17.7 km/h (3 Bft) 98.31 %
29.11.2020 01:15 0.3 C 0.0 C 0.0 C 0.0 C 97 % 1024.6 hPa 0.0 l/m 9.4 km/h (2 Bft) NO 48 0 min 0.000 mm 0.0 UV-I 0 W/m -0.1 C -2.6 C 19.3 km/h (3 Bft) 97.44 %
29.11.2020 00:15 0.0 C 0.0 C 0.0 C 0.0 C 97 % 1024.6 hPa 0.0 l/m 10.5 km/h (2 Bft) SO 130 0 min 0.000 mm 0.0 UV-I 0 W/m -0.4 C -3.9 C 22.5 km/h (4 Bft) 99.15 %
28.11.2020 23:15 0.6 C 0.0 C 0.0 C 0.0 C 97 % 1024.2 hPa 0.0 l/m 8.4 km/h (2 Bft) NO 50 0 min 0.000 mm 0.0 UV-I 0 W/m 0.2 C -1.4 C 17.7 km/h (3 Bft) 98.29 %
28.11.2020 22:15 0.3 C 0.0 C 0.0 C 0.0 C 97 % 1024.2 hPa 0.0 l/m 7.8 km/h (2 Bft) O-NO 74 0 min 0.000 mm 0.0 UV-I 0 W/m -0.1 C -1.1 C 12.9 km/h (3 Bft) 100.00 %
28.11.2020 21:15 0.1 C -0.6 C 0.0 C 0.0 C 97 % 1024.1 hPa 0.0 l/m 7.7 km/h (2 Bft) O-NO 72 0 min 0.000 mm 0.0 UV-I 0 W/m -0.3 C -1.2 C 16.1 km/h (3 Bft) 100.00 %
28.11.2020 20:15 -0.2 C -0.6 C 0.0 C 0.0 C 97 % 1023.7 hPa 0.0 l/m 7.0 km/h (2 Bft) NO 56 0 min 0.000 mm 0.0 UV-I 0 W/m -0.6 C -0.8 C 12.9 km/h (3 Bft) 99.15 %
28.11.2020 19:15 -0.2 C -0.6 C 0.0 C 0.0 C 97 % 1023.6 hPa 0.0 l/m 8.3 km/h (2 Bft) O-NO 75 0 min 0.000 mm 0.0 UV-I 0 W/m -0.6 C -2.1 C 14.5 km/h (3 Bft) 97.44 %
28.11.2020 19:00 -0.2 C -0.6 C 0.0 C 0.0 C 97 % 1023.4 hPa 0.0 l/m 7.1 km/h (2 Bft) O-NO 68 0 min 0.000 mm 0.0 UV-I 0 W/m -0.6 C -0.9 C 16.1 km/h (3 Bft) 100.00 %
_ Min-Zeit 19:15 19:00 19:00 19:00 13:10 19:00 - 17:15 - - - - - - 17:05 23:45 17:15 04:15
Minimum _ -0.3 C -0.6 C 0.0 C 0.0 C 75 % 1023.4 hPa - 0.0 km/h (0 Bft) - - - - - - -2.4 C -5.5 C 0.0 km/h (0 Bft) 94.02 %
_ Max-Zeit 13:05 12:05 19:00 19:00 19:00 18:00 19:00 23:45 - - 12:00 13:05 12:05 12:10 22:55 14:15 23:40 19:00
Maximum _ 2.2 C 7.2 C 0.0 C 0.0 C 97 % 1027.2 hPa 0.0 l/m 13.1 km/h
O (3 Bft)
- - 5 min 0.102 mm 0.9 UV-I 302 W/m 0.2 C 1.9 C 29.0 km/h
O-NO (5 Bft)
100.00 %
Durchschnitt _ 0.4 C 1.1 C 0.0 C 0.0 C 90 % 1025.2 hPa #0.0 l/m 7.4 km/h (2 Bft) O-NO - #2:05 h #0.381 mm 0.7 UV-I 104 W/m -1.1 C -1.1 C 15.4 km/h (3 Bft) 98.74 %